Time;durP1;ratioP1;P1;durP2;ratioP2;P2;SDS_P1;SDS_P2;PMS_P1;PMS_P2;Temp;Humidity;BMP_temperature;BMP_pressure;BME280_temperature;BME280_humidity;BME280_pressure;Samples;Min_cycle;Max_cycle;Signal;HPM_P1;HPM_P2
2022/08/28 00:02:03;;;;;;;8.18;3.47;;;14.90;99.90;;;;;;4993307;28;20042;-70
2022/08/28 00:04:29;;;;;;;10.55;3.72;;;14.80;99.90;;;;;;4994145;28;20507;-69
2022/08/28 00:06:54;;;;;;;9.13;3.67;;;14.90;99.90;;;;;;4994780;28;20043;-70
2022/08/28 00:09:20;;;;;;;9.38;3.97;;;14.80;99.90;;;;;;4977182;28;20520;-69
2022/08/28 00:11:47;;;;;;;9.80;3.35;;;14.70;99.90;;;;;;4976645;28;20039;-69
2022/08/28 00:14:13;;;;;;;7.57;3.47;;;14.80;99.90;;;;;;4992557;28;20065;-69
2022/08/28 00:16:39;;;;;;;8.68;3.40;;;14.80;99.90;;;;;;4994130;28;20562;-69
2022/08/28 00:19:05;;;;;;;9.75;3.55;;;14.70;99.90;;;;;;4976465;28;20121;-69
2022/08/28 00:21:32;;;;;;;13.43;2.92;;;15.00;99.90;;;;;;4992518;28;20460;-69
2022/08/28 00:23:58;;;;;;;8.68;2.70;;;14.80;99.90;;;;;;4992269;28;20484;-70
2022/08/28 00:29:19;;;;;;;11.85;3.28;;;14.80;99.90;;;;;;5008894;28;20038;-69
2022/08/28 00:31:44;;;;;;;9.85;2.40;;;14.80;99.90;;;;;;4992535;28;20038;-70
2022/08/28 00:34:10;;;;;;;5.82;3.15;;;14.70;99.90;;;;;;4992357;28;20040;-70
2022/08/28 00:36:37;;;;;;;8.05;3.08;;;14.90;99.90;;;;;;4992444;28;20039;-69
2022/08/28 00:39:04;;;;;;;12.48;3.80;;;14.80;99.90;;;;;;4993679;28;20052;-69
2022/08/28 00:41:31;;;;;;;13.57;3.50;;;14.70;99.90;;;;;;4993595;28;20042;-69
2022/08/28 00:44:09;;;;;;;11.82;2.92;;;14.80;99.90;;;;;;4992174;28;20069;-70
2022/08/28 00:46:34;;;;;;;9.60;3.60;;;14.80;99.90;;;;;;4992139;28;20074;-71
2022/08/28 00:49:00;;;;;;;11.35;2.92;;;14.70;99.90;;;;;;4992571;28;20076;-69
2022/08/28 00:54:11;;;;;;;10.50;3.67;;;14.50;99.90;;;;;;4992575;28;20053;-71
2022/08/28 00:56:39;;;;;;;9.77;3.95;;;14.50;99.90;;;;;;4976053;28;20038;-71
2022/08/28 00:59:09;;;;;;;12.02;3.92;;;14.60;99.90;;;;;;4992251;28;20042;-69
2022/08/28 01:01:35;;;;;;;12.45;4.00;;;14.50;99.90;;;;;;4993148;28;20049;-69
2022/08/28 01:04:04;;;;;;;7.40;3.55;;;14.50;99.90;;;;;;4993101;28;20060;-69
2022/08/28 01:06:31;;;;;;;12.50;4.28;;;14.50;99.90;;;;;;4975679;28;20038;-69
2022/08/28 01:08:57;;;;;;;11.27;4.90;;;14.40;99.90;;;;;;4991998;28;20042;-70
2022/08/28 01:11:23;;;;;;;7.80;3.55;;;14.50;99.90;;;;;;4991845;28;20092;-70
2022/08/28 01:13:50;;;;;;;11.85;3.80;;;14.90;99.90;;;;;;4991668;28;20042;-70
2022/08/28 01:16:17;;;;;;;12.15;3.90;;;14.90;99.90;;;;;;4991741;28;20053;-70
2022/08/28 01:18:44;;;;;;;9.50;4.22;;;14.40;99.90;;;;;;4975936;28;20050;-69
2022/08/28 01:21:22;;;;;;;11.15;3.55;;;14.50;99.90;;;;;;4991675;28;20516;-69
2022/08/28 01:24:10;;;;;;;10.40;3.83;;;14.30;99.90;;;;;;4992577;28;20049;-69
2022/08/28 01:26:37;;;;;;;10.90;3.83;;;14.40;99.90;;;;;;4975201;28;20082;-69
2022/08/28 01:29:07;;;;;;;11.52;3.35;;;;;;;;;;4992710;28;20693;-69
2022/08/28 01:31:33;;;;;;;9.30;3.30;;;;;;;;;;4991109;28;20563;-69
2022/08/28 01:34:02;;;;;;;11.00;3.60;;;;;;;;;;4991280;28;20444;-70
2022/08/28 01:36:32;;;;;;;12.80;3.47;;;;;;;;;;4991531;28;20050;-69
2022/08/28 01:39:07;;;;;;;12.55;3.85;;;;;;;;;;4992798;28;20045;-69
2022/08/28 01:41:34;;;;;;;13.18;4.75;;;;;;;;;;4991569;28;20173;-69
2022/08/28 01:44:00;;;;;;;7.35;3.10;;;;;;;;;;4991166;28;20053;-70
2022/08/28 01:46:26;;;;;;;8.93;4.18;;;;;;;;;;4991316;28;20050;-71
2022/08/28 01:48:52;;;;;;;7.95;3.65;;;;;;;;;;4992881;28;20069;-70
2022/08/28 01:51:18;;;;;;;12.35;4.55;;;;;;;;;;4991497;28;20114;-69
2022/08/28 01:53:45;;;;;;;10.38;3.42;;;;;;;;;;4974692;28;20125;-70
2022/08/28 01:56:13;;;;;;;14.57;4.60;;;;;;;;;;4992214;28;20561;-69
2022/08/28 01:58:39;;;;;;;12.93;3.58;;;;;;;;;;4992283;28;20105;-71
2022/08/28 02:01:10;;;;;;;13.40;4.20;;;;;;;;;;4990872;28;20639;-69
2022/08/28 02:03:36;;;;;;;7.63;3.78;;;;;;;;;;4990841;28;20042;-69
2022/08/28 02:06:01;;;;;;;12.38;4.05;;;14.00;99.90;;;;;;4992007;28;20123;-69
2022/08/28 02:08:27;;;;;;;12.57;4.90;;;13.80;99.90;;;;;;4974783;28;20041;-69
2022/08/28 02:10:53;;;;;;;11.15;4.32;;;13.90;99.90;;;;;;4991052;28;20038;-69
2022/08/28 02:13:18;;;;;;;11.77;4.85;;;13.90;99.90;;;;;;4990910;28;20039;-69
2022/08/28 02:15:44;;;;;;;11.10;4.28;;;;;;;;;;4991788;28;20038;-69
2022/08/28 02:18:10;;;;;;;13.70;4.28;;;13.90;99.90;;;;;;4991275;28;20042;-70
2022/08/28 02:20:36;;;;;;;11.00;4.68;;;14.00;99.90;;;;;;4992237;28;20522;-70
2022/08/28 02:23:03;;;;;;;11.82;4.63;;;14.10;99.90;;;;;;5027066;23;20068;-72
2022/08/28 02:25:29;;;;;;;10.30;4.85;;;13.80;99.90;;;;;;5040046;28;20418;-73
2022/08/28 02:27:55;;;;;;;11.75;4.70;;;14.00;99.90;;;;;;5038200;28;20052;-73
2022/08/28 02:30:22;;;;;;;9.73;4.72;;;14.00;99.90;;;;;;5031014;28;20049;-73
2022/08/28 02:32:49;;;;;;;10.18;4.60;;;13.90;99.90;;;;;;5030246;28;20041;-73
2022/08/28 02:35:17;;;;;;;10.95;4.55;;;13.90;99.90;;;;;;5030537;28;20038;-73
2022/08/28 02:37:44;;;;;;;7.80;3.70;;;14.00;99.90;;;;;;5031998;28;20091;-73
2022/08/28 02:40:13;;;;;;;8.75;4.60;;;14.00;99.90;;;;;;5014114;28;20037;-73
2022/08/28 02:42:39;;;;;;;10.90;3.90;;;13.80;99.90;;;;;;5031819;28;20049;-73
2022/08/28 02:45:07;;;;;;;13.48;4.85;;;13.80;99.90;;;;;;5032351;28;20495;-73
2022/08/28 02:47:32;;;;;;;8.20;3.63;;;13.80;99.90;;;;;;5035282;28;20045;-73
2022/08/28 02:49:58;;;;;;;11.18;4.20;;;13.80;99.90;;;;;;5035370;28;20040;-73
2022/08/28 02:52:24;;;;;;;10.35;3.97;;;13.80;99.90;;;;;;5033887;28;20122;-73
2022/08/28 02:54:50;;;;;;;12.95;3.90;;;;;;;;;;5033769;28;20483;-73
2022/08/28 02:57:16;;;;;;;10.73;3.53;;;;;;;;;;5033939;28;20037;-73
2022/08/28 02:59:42;;;;;;;7.85;3.47;;;;;;;;;;5035298;28;20599;-73
2022/08/28 03:02:08;;;;;;;15.75;3.22;;;13.60;99.90;;;;;;5035118;28;20045;-73
2022/08/28 03:04:36;;;;;;;11.23;3.60;;;13.50;99.90;;;;;;5033498;28;20514;-73
2022/08/28 03:07:03;;;;;;;8.27;3.03;;;13.60;99.90;;;;;;5034897;28;20041;-73
2022/08/28 03:09:30;;;;;;;6.97;2.90;;;;;;;;;;5034977;28;20487;-73
2022/08/28 03:11:55;;;;;;;8.65;2.92;;;13.70;99.90;;;;;;5017356;28;20132;-73
2022/08/28 03:14:22;;;;;;;6.65;2.70;;;13.60;99.90;;;;;;5034516;28;20068;-73
2022/08/28 03:16:48;;;;;;;7.82;3.00;;;13.40;99.90;;;;;;5035140;28;20041;-73
2022/08/28 03:19:14;;;;;;;5.95;3.08;;;13.70;99.90;;;;;;5033518;28;20084;-73
2022/08/28 03:21:39;;;;;;;9.48;2.97;;;13.50;99.90;;;;;;5033734;28;20056;-73
2022/08/28 03:24:05;;;;;;;9.23;2.90;;;13.50;99.90;;;;;;5034250;28;20049;-73
2022/08/28 03:26:31;;;;;;;9.27;3.28;;;13.20;99.90;;;;;;5016755;28;20064;-73
2022/08/28 03:28:58;;;;;;;10.32;3.78;;;;;;;;;;5033272;28;20041;-73
2022/08/28 03:31:25;;;;;;;8.70;3.53;;;13.30;99.90;;;;;;5034621;28;20553;-73
2022/08/28 03:33:52;;;;;;;7.72;3.38;;;13.50;99.90;;;;;;5032929;28;20083;-73
2022/08/28 03:36:21;;;;;;;6.43;3.67;;;13.50;99.90;;;;;;5033477;28;20048;-73
2022/08/28 03:38:48;;;;;;;12.68;4.32;;;13.60;99.90;;;;;;5033322;28;20089;-73
2022/08/28 03:41:16;;;;;;;8.30;4.47;;;13.20;99.90;;;;;;5033692;28;20400;-73
2022/08/28 03:43:42;;;;;;;7.43;3.97;;;;;;;;;;5033114;28;20068;-73
2022/08/28 03:46:13;;;;;;;9.00;4.28;;;13.10;99.90;;;;;;5034320;28;20033;-73
2022/08/28 03:48:39;;;;;;;11.55;5.65;;;13.30;99.90;;;;;;5033253;28;20120;-73
2022/08/28 03:51:10;;;;;;;18.50;5.05;;;13.60;99.90;;;;;;5033400;28;20120;-73
2022/08/28 03:53:36;;;;;;;10.10;4.50;;;13.50;99.90;;;;;;5032925;28;20084;-73
2022/08/28 03:56:08;;;;;;;8.95;4.68;;;13.50;99.90;;;;;;5032308;28;20041;-73
2022/08/28 03:58:34;;;;;;;10.45;4.97;;;13.50;99.90;;;;;;5032869;28;20049;-73
2022/08/28 04:01:00;;;;;;;11.18;4.72;;;13.50;99.90;;;;;;5032773;28;20042;-73
2022/08/28 04:03:25;;;;;;;10.95;3.90;;;13.50;99.90;;;;;;5032574;28;20091;-73
2022/08/28 04:05:51;;;;;;;9.32;4.35;;;;;;;;;;5032469;28;20045;-73
2022/08/28 04:08:19;;;;;;;11.85;4.80;;;13.60;99.90;;;;;;5033855;28;20065;-73
2022/08/28 04:10:46;;;;;;;10.52;4.78;;;13.50;99.90;;;;;;5033795;28;20040;-73
2022/08/28 04:13:13;;;;;;;10.80;4.93;;;13.60;99.90;;;;;;5032587;28;20098;-73
2022/08/28 04:15:39;;;;;;;11.88;4.75;;;13.70;99.90;;;;;;5032476;28;20410;-73
2022/08/28 04:18:05;;;;;;;8.38;4.30;;;13.50;99.90;;;;;;5032662;28;20396;-73
2022/08/28 04:20:31;;;;;;;10.65;4.18;;;;;;;;;;5032286;28;20095;-73
2022/08/28 04:22:57;;;;;;;11.70;5.32;;;13.40;99.90;;;;;;5033393;28;20045;-73
2022/08/28 04:25:23;;;;;;;10.38;4.80;;;;;;;;;;5033096;28;20041;-73
2022/08/28 04:27:49;;;;;;;10.93;4.78;;;13.40;99.90;;;;;;5032191;28;20045;-73
2022/08/28 04:30:15;;;;;;;10.05;4.00;;;;;;;;;;5033462;28;20037;-73
2022/08/28 04:32:41;;;;;;;18.13;6.40;;;;;;;;;;5033408;28;20518;-73
2022/08/28 04:35:09;;;;;;;8.90;4.15;;;13.40;99.90;;;;;;5031612;28;20081;-72
2022/08/28 04:37:35;;;;;;;6.88;3.95;;;13.40;99.90;;;;;;5033367;28;20052;-72
2022/08/28 04:40:07;;;;;;;8.65;4.13;;;13.50;99.90;;;;;;5046491;28;20076;-73
2022/08/28 04:42:33;;;;;;;5.05;3.25;;;;;;;;;;5057244;28;20053;-73
2022/08/28 04:44:58;;;;;;;8.15;3.95;;;13.30;99.90;;;;;;5057089;28;20037;-73
2022/08/28 04:47:27;;;;;;;8.15;3.10;;;13.30;99.90;;;;;;5036897;28;20040;-73
2022/08/28 04:49:54;;;;;;;19.42;4.03;;;13.50;99.90;;;;;;5031854;28;20065;-72
2022/08/28 04:52:21;;;;;;;7.72;2.30;;;;;;;;;;5015192;28;20029;-73
2022/08/28 04:54:47;;;;;;;7.40;2.72;;;13.50;99.90;;;;;;5031494;28;20060;-72
2022/08/28 04:57:12;;;;;;;12.00;2.53;;;13.70;99.90;;;;;;5031992;28;20042;-73
2022/08/28 04:59:40;;;;;;;6.38;2.72;;;;;;;;;;5031809;28;20041;-73
2022/08/28 05:02:07;;;;;;;6.28;2.40;;;13.60;99.90;;;;;;5031686;28;20037;-73
2022/08/28 05:04:32;;;;;;;6.40;2.25;;;13.60;99.90;;;;;;5031397;28;20041;-73
2022/08/28 05:06:58;;;;;;;9.25;2.38;;;13.70;99.90;;;;;;5031898;28;20056;-73
2022/08/28 05:09:23;;;;;;;10.88;2.53;;;13.60;99.90;;;;;;5032913;28;20034;-73
2022/08/28 05:11:50;;;;;;;8.60;2.60;;;13.50;99.90;;;;;;5015162;28;20124;-73
2022/08/28 05:14:16;;;;;;;14.07;3.47;;;13.50;99.90;;;;;;5031297;28;20045;-73
2022/08/28 05:16:44;;;;;;;8.13;3.20;;;13.60;99.90;;;;;;5031396;28;20519;-73
2022/08/28 05:19:10;;;;;;;7.95;2.85;;;13.70;99.90;;;;;;5014838;28;20462;-73
2022/08/28 05:21:37;;;;;;;8.20;3.38;;;;;;;;;;5031168;28;20045;-73
2022/08/28 05:24:03;;;;;;;10.32;3.67;;;;;;;;;;5032153;28;20811;-73
2022/08/28 05:26:29;;;;;;;10.48;4.82;;;13.90;99.90;;;;;;5031126;28;20045;-72
2022/08/28 05:28:56;;;;;;;11.00;5.28;;;13.90;99.90;;;;;;5031186;28;20172;-73
2022/08/28 05:31:22;;;;;;;9.88;5.90;;;13.90;99.90;;;;;;5031282;28;20068;-73
2022/08/28 05:33:49;;;;;;;16.25;6.90;;;14.00;99.90;;;;;;5030833;28;20037;-72
2022/08/28 05:36:17;;;;;;;9.40;5.07;;;14.00;99.90;;;;;;5030883;28;20048;-73
2022/08/28 05:38:43;;;;;;;7.55;2.75;;;;;;;;;;5031199;28;20120;-73
2022/08/28 05:41:10;;;;;;;7.75;2.75;;;14.30;99.90;;;;;;5030597;28;20056;-72
2022/08/28 05:43:36;;;;;;;7.90;2.30;;;;;;;;;;5030606;28;20056;-73
2022/08/28 05:46:09;;;;;;;6.63;1.80;;;14.30;99.90;;;;;;5031950;28;20088;-73
2022/08/28 05:48:36;;;;;;;11.47;2.47;;;14.30;99.90;;;;;;5032178;28;20043;-72
2022/08/28 05:51:11;;;;;;;4.82;1.77;;;14.40;99.90;;;;;;5030756;28;20087;-73
2022/08/28 05:53:41;;;;;;;12.52;2.35;;;14.60;99.90;;;;;;5030760;28;20029;-73
2022/08/28 05:56:08;;;;;;;9.70;2.28;;;14.80;99.90;;;;;;5032089;28;20399;-73
2022/08/28 05:58:34;;;;;;;8.88;2.40;;;14.90;99.90;;;;;;5030890;28;20041;-73
2022/08/28 06:01:14;;;;;;;14.60;3.30;;;15.10;99.90;;;;;;5030561;28;20047;-73
2022/08/28 06:03:41;;;;;;;4.75;1.60;;;15.10;99.90;;;;;;5030821;28;20037;-73
2022/08/28 06:06:08;;;;;;;6.50;2.10;;;15.30;99.90;;;;;;5031751;28;20038;-73
2022/08/28 06:08:34;;;;;;;10.02;2.17;;;;;;;;;;5031988;28;20467;-73
2022/08/28 06:11:01;;;;;;;7.35;1.85;;;15.40;99.90;;;;;;5031167;28;20037;-73
2022/08/28 06:13:28;;;;;;;4.70;1.45;;;15.60;99.90;;;;;;5031448;28;20488;-73
2022/08/28 06:15:55;;;;;;;5.43;2.00;;;15.60;99.90;;;;;;5013807;28;20512;-74
2022/08/28 06:18:21;;;;;;;5.88;1.48;;;;;;;;;;5029864;28;20088;-72
2022/08/28 06:20:47;;;;;;;7.80;2.08;;;15.80;99.90;;;;;;5022491;28;20380;-73
2022/08/28 06:23:15;;;;;;;4.75;1.42;;;15.80;99.90;;;;;;5036297;28;20103;-72
2022/08/28 06:25:45;;;;;;;8.95;2.22;;;15.90;99.90;;;;;;5037246;28;20073;-73
2022/08/28 06:28:13;;;;;;;5.15;1.50;;;16.00;99.90;;;;;;5033549;28;20090;-73
2022/08/28 06:30:40;;;;;;;8.05;1.63;;;16.20;99.90;;;;;;5040252;28;20107;-73
2022/08/28 06:33:06;;;;;;;7.05;1.45;;;16.20;99.90;;;;;;5036881;28;20053;-73
2022/08/28 06:35:33;;;;;;;8.90;1.20;;;;;;;;;;5039422;28;20120;-73
2022/08/28 06:37:59;;;;;;;8.55;1.85;;;16.30;99.90;;;;;;5038272;28;20073;-73
2022/08/28 06:40:25;;;;;;;8.57;1.80;;;16.50;99.90;;;;;;5032290;28;20080;-73
2022/08/28 06:42:51;;;;;;;8.05;1.90;;;;;;;;;;5029727;28;20044;-73
2022/08/28 06:45:18;;;;;;;4.65;1.63;;;;;;;;;;5044486;28;20036;-73
2022/08/28 06:47:45;;;;;;;5.60;1.98;;;16.70;99.90;;;;;;5037768;28;20127;-73
2022/08/28 06:50:11;;;;;;;12.35;3.25;;;;;;;;;;5037485;28;20057;-73
2022/08/28 06:52:37;;;;;;;8.30;1.73;;;16.80;99.90;;;;;;5035517;28;20037;-73
2022/08/28 06:55:03;;;;;;;5.32;1.67;;;;;;;;;;5041933;28;20037;-73
2022/08/28 06:57:30;;;;;;;6.13;1.65;;;;;;;;;;5033381;28;20037;-74
2022/08/28 06:59:57;;;;;;;9.55;1.75;;;17.20;99.90;;;;;;5038925;28;20053;-73
2022/08/28 07:02:23;;;;;;;9.02;1.95;;;;;;;;;;5040520;28;20067;-73
2022/08/28 07:04:52;;;;;;;8.43;2.20;;;17.30;99.90;;;;;;5038713;28;20075;-73
2022/08/28 07:07:19;;;;;;;5.03;1.70;;;17.60;99.90;;;;;;5032628;28;20041;-73
2022/08/28 07:09:46;;;;;;;6.22;1.80;;;17.60;99.90;;;;;;5031183;28;20570;-72
2022/08/28 07:12:15;;;;;;;7.72;1.27;;;17.80;99.90;;;;;;5032208;28;20041;-73
2022/08/28 07:14:42;;;;;;;3.08;1.23;;;17.90;99.90;;;;;;5034524;28;20501;-73
2022/08/28 07:17:08;;;;;;;9.00;1.90;;;18.00;99.90;;;;;;5035434;28;20116;-73
2022/08/28 07:19:33;;;;;;;10.90;2.60;;;18.20;99.90;;;;;;5043130;28;20156;-73
2022/08/28 07:21:59;;;;;;;3.15;1.88;;;18.10;99.90;;;;;;5033764;28;20052;-73
2022/08/28 07:24:25;;;;;;;5.90;1.67;;;18.40;99.90;;;;;;5033210;28;20124;-73
2022/08/28 07:26:51;;;;;;;5.07;1.30;;;18.30;99.90;;;;;;5033436;28;20073;-73
2022/08/28 07:29:18;;;;;;;6.88;1.58;;;18.40;99.90;;;;;;5032965;28;20065;-73
2022/08/28 07:31:47;;;;;;;5.65;1.52;;;18.40;99.90;;;;;;5032918;28;20041;-73
2022/08/28 07:34:14;;;;;;;10.10;2.70;;;18.50;99.90;;;;;;5033305;28;20041;-73
2022/08/28 07:36:41;;;;;;;4.75;1.25;;;18.30;99.90;;;;;;5033597;28;20495;-73
2022/08/28 07:39:09;;;;;;;8.27;1.60;;;18.60;99.90;;;;;;5033192;28;20045;-73
2022/08/28 07:41:38;;;;;;;5.53;1.42;;;18.40;99.90;;;;;;5033157;28;20042;-73
2022/08/28 07:46:55;;;;;;;5.30;1.42;;;17.90;99.90;;;;;;5032983;28;20060;-74
2022/08/28 07:49:22;;;;;;;5.90;1.80;;;18.00;99.90;;;;;;5034471;28;20034;-73
2022/08/28 07:51:47;;;;;;;6.80;1.80;;;17.90;99.90;;;;;;5032983;28;20034;-73
2022/08/28 07:54:14;;;;;;;6.50;1.67;;;18.10;99.90;;;;;;5034069;28;20116;-72
2022/08/28 07:56:40;;;;;;;5.28;1.63;;;18.30;99.90;;;;;;5035060;28;20052;-73
2022/08/28 07:59:07;;;;;;;7.20;1.65;;;18.50;99.90;;;;;;5033995;28;20124;-73
2022/08/28 08:01:38;;;;;;;4.53;1.30;;;18.60;99.90;;;;;;5035044;28;20037;-73
2022/08/28 08:04:06;;;;;;;4.18;1.35;;;18.70;99.90;;;;;;5033712;28;20041;-73
2022/08/28 08:06:33;;;;;;;4.85;1.63;;;19.00;99.90;;;;;;5036155;28;20052;-74
2022/08/28 08:08:59;;;;;;;11.85;2.25;;;18.90;99.90;;;;;;5041336;28;20117;-74
2022/08/28 08:11:25;;;;;;;8.70;1.67;;;19.00;99.90;;;;;;5042133;28;20537;-73
2022/08/28 08:13:53;;;;;;;5.63;1.50;;;18.90;99.90;;;;;;5035303;28;20076;-73
2022/08/28 08:16:21;;;;;;;5.00;1.38;;;20.30;99.90;;;;;;5033485;28;20056;-73
2022/08/28 08:18:48;;;;;;;8.25;1.75;;;19.00;99.90;;;;;;5032894;28;20096;-74
2022/08/28 08:21:18;;;;;;;6.05;1.35;;;18.70;99.90;;;;;;5032597;28;20090;-73
2022/08/28 08:23:44;;;;;;;5.97;1.35;;;20.20;99.90;;;;;;5037181;23;20052;-67
2022/08/28 08:26:17;;;;;;;4.38;1.60;;;18.50;99.90;;;;;;5031823;28;20046;-70
2022/08/28 08:28:44;;;;;;;5.03;1.25;;;19.80;99.90;;;;;;5031778;28;20487;-70
2022/08/28 08:31:16;;;;;;;6.57;1.75;;;18.60;99.90;;;;;;5031352;28;20132;-71
2022/08/28 08:33:45;;;;;;;7.05;1.50;;;19.40;99.90;;;;;;5032876;28;20048;-70
2022/08/28 08:36:13;;;;;;;4.30;1.45;;;18.90;99.90;;;;;;5012014;28;20038;-70
2022/08/28 08:38:40;;;;;;;9.32;2.15;;;19.60;99.90;;;;;;5012865;28;20112;-71
2022/08/28 08:41:42;;;;;;;7.45;1.67;;;18.50;99.90;;;;;;5013547;28;20403;-70
2022/08/28 08:44:44;;;;;;;7.93;1.67;;;18.30;99.90;;;;;;5014378;28;20415;-69
2022/08/28 08:47:47;;;;;;;13.98;2.22;;;18.10;99.90;;;;;;5030714;28;20061;-69
2022/08/28 08:50:29;;;;;;;7.72;1.70;;;18.10;99.90;;;;;;5013635;28;20064;-69
2022/08/28 08:53:20;;;;;;;4.38;1.45;;;18.80;99.90;;;;;;5031350;28;20056;-69
2022/08/28 08:55:51;;;;;;;4.95;1.50;;;20.50;99.90;;;;;;5031998;28;20033;-70
2022/08/28 08:58:39;;;;;;;5.82;1.65;;;19.70;99.90;;;;;;5031271;28;20124;-69
2022/08/28 09:01:14;;;;;;;3.63;1.30;;;19.60;99.90;;;;;;5031475;28;20438;-69
2022/08/28 09:03:42;;;;;;;6.57;2.08;;;19.50;99.90;;;;;;5031661;28;20112;-70
2022/08/28 09:06:36;;;;;;;7.53;1.92;;;19.20;99.90;;;;;;5014803;28;20083;-70
2022/08/28 09:09:10;;;;;;;7.78;1.90;;;18.80;99.90;;;;;;5027245;28;20076;-69
2022/08/28 09:12:02;;;;;;;13.73;1.85;;;19.80;99.90;;;;;;5033103;28;20034;-70
2022/08/28 09:14:57;;;;;;;5.55;1.60;;;18.70;99.90;;;;;;5032268;28;20501;-70
2022/08/28 09:17:29;;;;;;;8.52;1.73;;;19.60;99.90;;;;;;5031417;28;20120;-69
2022/08/28 09:19:55;;;;;;;5.35;1.38;;;19.70;99.90;;;;;;5014708;28;20038;-69
2022/08/28 09:22:21;;;;;;;5.20;1.75;;;19.30;99.90;;;;;;5031176;28;20059;-70
2022/08/28 09:24:47;;;;;;;4.15;1.73;;;19.30;99.90;;;;;;5031798;28;20037;-69
2022/08/28 09:27:33;;;;;;;7.43;1.70;;;19.10;99.90;;;;;;5031985;28;20049;-69
2022/08/28 09:30:02;;;;;;;5.07;2.08;;;20.80;99.90;;;;;;5032363;28;20083;-70
2022/08/28 09:32:28;;;;;;;3.38;1.60;;;19.00;99.90;;;;;;5030944;28;20076;-69
2022/08/28 09:35:28;;;;;;;7.95;1.83;;;18.80;99.90;;;;;;5014023;28;20068;-69
2022/08/28 09:37:55;;;;;;;6.13;1.70;;;18.70;99.90;;;;;;5030945;28;20438;-69
2022/08/28 09:43:29;;;;;;;9.38;2.20;;;19.20;99.90;;;;;;5031877;28;20053;-69
2022/08/28 09:46:14;;;;;;;6.60;1.92;;;19.20;99.90;;;;;;5030343;28;20041;-69
2022/08/28 09:48:42;;;;;;;5.43;1.52;;;19.20;99.90;;;;;;5032269;28;20087;-70
2022/08/28 09:51:28;;;;;;;3.95;1.70;;;19.30;99.90;;;;;;5031891;28;20038;-70
2022/08/28 09:54:01;;;;;;;6.57;1.80;;;19.40;99.90;;;;;;5028999;28;20056;-68
2022/08/28 09:56:26;;;;;;;3.95;1.40;;;20.80;99.90;;;;;;5030452;28;20049;-69
2022/08/28 09:59:07;;;;;;;4.30;1.30;;;19.90;99.90;;;;;;5030453;28;20053;-70
2022/08/28 10:01:48;;;;;;;5.22;1.88;;;19.50;99.70;;;;;;5031854;28;20128;-69
2022/08/28 10:04:32;;;;;;;11.48;1.88;;;19.00;99.80;;;;;;5031458;28;20364;-69
2022/08/28 10:07:18;;;;;;;4.07;1.13;;;19.10;99.90;;;;;;5031837;28;20049;-69
2022/08/28 10:10:15;;;;;;;5.40;1.45;;;19.60;99.90;;;;;;5014039;28;20041;-69
2022/08/28 10:13:02;;;;;;;4.97;1.65;;;20.10;99.90;;;;;;5030057;28;20121;-69
2022/08/28 10:16:00;;;;;;;12.55;1.88;;;20.20;99.70;;;;;;5031360;28;20080;-69
2022/08/28 10:18:45;;;;;;;6.28;2.20;;;20.30;99.90;;;;;;5031418;28;20507;-69
2022/08/28 10:21:19;;;;;;;7.78;1.70;;;20.30;99.60;;;;;;5013724;28;20071;-69
2022/08/28 10:23:47;;;;;;;5.63;1.80;;;21.20;99.90;;;;;;5031346;28;20072;-69
2022/08/28 10:26:19;;;;;;;8.20;1.50;;;21.40;99.90;;;;;;5013413;28;20051;-68
2022/08/28 10:29:14;;;;;;;8.27;1.70;;;19.70;99.70;;;;;;5030029;28;20037;-69
2022/08/28 10:32:06;;;;;;;3.95;1.50;;;19.60;99.30;;;;;;5008030;28;20092;-69
2022/08/28 10:35:01;;;;;;;4.07;1.30;;;19.70;99.80;;;;;;5029710;28;20084;-69
2022/08/28 10:37:57;;;;;;;4.10;1.85;;;20.00;99.00;;;;;;5031365;28;20069;-69
2022/08/28 10:40:22;;;;;;;6.97;2.35;;;20.50;99.00;;;;;;5030005;28;20055;-70
2022/08/28 10:43:12;;;;;;;6.97;2.90;;;21.90;99.80;;;;;;5031232;28;20120;-70
2022/08/28 10:45:39;;;;;;;8.88;2.22;;;20.60;98.90;;;;;;5031343;28;20038;-70
2022/08/28 10:48:29;;;;;;;10.07;1.88;;;19.80;98.70;;;;;;5029790;28;20164;-70
2022/08/28 10:51:06;;;;;;;4.90;1.45;;;20.30;99.10;;;;;;5031202;28;20591;-70
2022/08/28 10:53:40;;;;;;;7.10;1.42;;;20.60;99.10;;;;;;5030123;28;20526;-70
2022/08/28 10:56:16;;;;;;;4.88;1.50;;;21.10;99.00;;;;;;5029344;28;20041;-70
2022/08/28 10:58:43;;;;;;;7.47;1.60;;;20.80;98.80;;;;;;5030242;28;20439;-70
2022/08/28 11:01:13;;;;;;;6.82;1.50;;;20.50;98.70;;;;;;5031335;28;20045;-69
2022/08/28 11:03:46;;;;;;;5.65;1.98;;;20.20;98.80;;;;;;5031046;28;20102;-70
2022/08/28 11:06:27;;;;;;;6.53;2.15;;;20.50;99.10;;;;;;5032074;28;20049;-69
2022/08/28 11:08:57;;;;;;;11.73;2.30;;;20.70;98.00;;;;;;5035012;28;20094;-69
2022/08/28 11:11:43;;;;;;;6.63;2.03;;;21.00;98.20;;;;;;5017198;28;20395;-69
2022/08/28 11:14:37;;;;;;;5.28;1.50;;;21.20;98.40;;;;;;5034353;28;20068;-70
2022/08/28 11:17:09;;;;;;;7.80;2.15;;;21.60;98.00;;;;;;5034482;28;20051;-69
2022/08/28 11:19:49;;;;;;;4.43;2.05;;;21.20;97.70;;;;;;5017101;28;20049;-69
2022/08/28 11:22:21;;;;;;;5.43;2.10;;;20.70;97.90;;;;;;5016999;28;20037;-69
2022/08/28 11:24:52;;;;;;;5.25;1.60;;;20.70;97.90;;;;;;5032876;28;20045;-69
2022/08/28 11:27:23;;;;;;;6.93;2.03;;;22.20;98.40;;;;;;5016618;28;20041;-69
2022/08/28 11:30:08;;;;;;;5.22;1.45;;;20.60;97.60;;;;;;5033210;28;20043;-70
2022/08/28 11:32:33;;;;;;;5.00;2.85;;;22.00;99.00;;;;;;5016655;28;20037;-70
2022/08/28 11:35:05;;;;;;;4.00;2.10;;;20.50;99.00;;;;;;5033961;28;20385;-69
2022/08/28 11:37:37;;;;;;;4.90;1.40;;;20.10;99.00;;;;;;5033021;28;20041;-70
2022/08/28 11:40:30;;;;;;;3.35;1.38;;;20.90;99.10;;;;;;5032876;28;20053;-70
2022/08/28 11:43:14;;;;;;;4.82;1.33;;;20.00;98.90;;;;;;5034334;28;20069;-70
2022/08/28 11:45:45;;;;;;;11.02;1.80;;;21.30;99.90;;;;;;5032700;28;20042;-70
2022/08/28 11:48:54;;;;;;;5.82;2.00;;;20.30;99.40;;;;;;5034145;28;20041;-70
2022/08/28 11:51:38;;;;;;;3.65;1.20;;;20.80;98.70;;;;;;4976400;28;20060;-70
2022/08/28 11:54:29;;;;;;;6.53;1.77;;;21.00;98.60;;;;;;4991682;28;20045;-70
2022/08/28 11:57:03;;;;;;;4.20;1.50;;;21.30;98.60;;;;;;5025829;28;20495;-70
2022/08/28 11:59:48;;;;;;;5.25;1.40;;;21.40;98.40;;;;;;5034028;28;20171;-69
2022/08/28 12:02:38;;;;;;;2.90;1.30;;;20.90;98.70;;;;;;5032998;28;20068;-68
2022/08/28 12:05:09;;;;;;;4.43;1.33;;;20.90;97.90;;;;;;5033495;28;20044;-68
2022/08/28 12:07:50;;;;;;;4.32;1.65;;;20.90;98.50;;;;;;5033622;28;20495;-71
2022/08/28 12:10:21;;;;;;;4.85;1.70;;;22.10;98.50;;;;;;5032445;28;20037;-69
2022/08/28 12:12:48;;;;;;;5.35;1.60;;;22.00;98.60;;;;;;5015787;28;20038;-69
2022/08/28 12:15:26;;;;;;;6.38;1.45;;;22.90;98.40;;;;;;5032081;28;20041;-68
2022/08/28 12:17:58;;;;;;;4.75;1.38;;;21.40;98.40;;;;;;5032410;28;20045;-69
2022/08/28 12:20:39;;;;;;;5.15;1.60;;;21.80;97.40;;;;;;5032617;28;20406;-69
2022/08/28 12:23:31;;;;;;;3.65;1.48;;;21.80;97.00;;;;;;5032112;28;20041;-69
2022/08/28 12:26:18;;;;;;;1.63;0.88;;;22.20;96.80;;;;;;5031819;28;20467;-70
2022/08/28 12:28:49;;;;;;;5.47;1.20;;;21.40;96.10;;;;;;5032105;28;20048;-70
2022/08/28 12:34:32;;;;;;;3.63;1.23;;;22.80;97.60;;;;;;5033452;28;20049;-69
2022/08/28 12:37:00;;;;;;;3.47;0.98;;;21.40;96.50;;;;;;5033455;28;20037;-70
2022/08/28 12:39:27;;;;;;;3.58;0.95;;;21.40;97.30;;;;;;5015403;28;20084;-69
2022/08/28 12:41:53;;;;;;;5.30;1.10;;;22.40;97.30;;;;;;5033044;28;20124;-70
2022/08/28 12:44:27;;;;;;;5.55;1.27;;;22.70;97.70;;;;;;5031378;28;20083;-70
2022/08/28 12:46:53;;;;;;;4.15;1.52;;;21.80;97.60;;;;;;5031729;28;20234;-70
2022/08/28 12:49:35;;;;;;;3.85;1.33;;;21.40;97.20;;;;;;5033185;28;20034;-69
2022/08/28 12:52:15;;;;;;;5.72;1.15;;;22.40;97.70;;;;;;5015275;28;20120;-69
2022/08/28 12:54:41;;;;;;;11.35;1.70;;;21.50;97.70;;;;;;5031320;28;20048;-69
2022/08/28 12:57:20;;;;;;;7.72;1.48;;;21.20;97.30;;;;;;5031509;28;20037;-69
2022/08/28 12:59:52;;;;;;;6.75;1.30;;;20.90;97.90;;;;;;5032885;28;20045;-70
2022/08/28 13:02:18;;;;;;;2.83;1.10;;;21.40;97.60;;;;;;5031626;28;20557;-69
2022/08/28 13:04:54;;;;;;;5.15;1.17;;;21.30;98.20;;;;;;5032639;28;20045;-70
2022/08/28 13:07:28;;;;;;;5.30;1.67;;;21.30;97.30;;;;;;5031457;28;20045;-69
2022/08/28 13:09:58;;;;;;;3.53;1.10;;;20.90;97.90;;;;;;5014951;28;20049;-69
2022/08/28 13:12:29;;;;;;;4.47;1.15;;;21.00;98.50;;;;;;5031291;28;20049;-69
2022/08/28 13:14:54;;;;;;;4.50;1.02;;;21.50;98.20;;;;;;5014684;28;20045;-69
2022/08/28 13:17:48;;;;;;;5.25;1.15;;;21.40;98.30;;;;;;5031460;28;20128;-69
2022/08/28 13:20:33;;;;;;;5.38;1.02;;;21.00;97.50;;;;;;5031356;28;20042;-69
2022/08/28 13:23:00;;;;;;;3.67;1.50;;;21.30;98.10;;;;;;5031215;28;20045;-69
2022/08/28 13:25:34;;;;;;;6.03;1.80;;;21.50;98.20;;;;;;5014403;28;20040;-69
2022/08/28 13:28:12;;;;;;;3.00;1.23;;;22.90;98.50;;;;;;5031838;28;20049;-69
2022/08/28 13:30:38;;;;;;;4.88;1.80;;;21.30;98.40;;;;;;5032426;28;20083;-70
2022/08/28 13:33:22;;;;;;;4.47;1.52;;;21.70;98.50;;;;;;5030734;28;20641;-70